Time;durP1;ratioP1;P1;durP2;ratioP2;P2;SDS_P1;SDS_P2;PMS_P1;PMS_P2;Temp;Humidity;BMP_temperature;BMP_pressure;BME280_temperature;BME280_humidity;BME280_pressure;Samples;Min_cycle;Max_cycle;Signal;HPM_P1;HPM_P2
2022/12/23 00:00:57;;;;;;;31.73;18.92;;;8.70;88.00;;;;;;5097130;28;20551;-71
2022/12/23 00:03:23;;;;;;;31.05;18.38;;;8.70;88.00;;;;;;5114067;28;20118;-71
2022/12/23 00:05:49;;;;;;;30.98;19.02;;;8.80;88.10;;;;;;5097430;28;20096;-72
2022/12/23 00:08:15;;;;;;;35.25;20.23;;;8.70;88.00;;;;;;5116039;27;20424;-72
2022/12/23 00:10:41;;;;;;;35.78;20.83;;;8.70;88.00;;;;;;5118071;27;20425;-72
2022/12/23 00:16:10;;;;;;;32.95;19.92;;;8.80;88.10;;;;;;5104557;27;20036;-72
2022/12/23 00:18:37;;;;;;;33.75;19.75;;;8.80;88.10;;;;;;5117868;27;20043;-72
2022/12/23 00:21:09;;;;;;;34.15;20.35;;;8.80;87.90;;;;;;5117564;27;20096;-69
2022/12/23 00:23:37;;;;;;;34.50;19.77;;;8.80;88.00;;;;;;5119032;27;20126;-72
2022/12/23 00:26:04;;;;;;;33.08;20.02;;;8.80;87.90;;;;;;5118092;27;20027;-72
2022/12/23 00:28:30;;;;;;;31.02;19.52;;;8.80;87.90;;;;;;5118734;27;20082;-72
2022/12/23 00:31:00;;;;;;;32.60;19.60;;;8.80;87.90;;;;;;5100766;27;20070;-72
2022/12/23 00:33:29;;;;;;;32.60;21.13;;;8.80;87.90;;;;;;5117740;27;20487;-72
2022/12/23 00:35:55;;;;;;;31.23;20.00;;;8.80;87.90;;;;;;5116715;27;20074;-72
2022/12/23 00:42:52;;;;;;;26.80;17.23;;;8.80;87.80;;;;;;5117471;27;20046;-69
2022/12/23 00:44:03;;;;;;;29.20;18.63;;;8.80;87.90;;;;;;5118892;27;20043;-72
2022/12/23 00:46:29;;;;;;;27.80;18.00;;;8.80;87.80;;;;;;5116131;27;20236;-71
2022/12/23 00:51:39;;;;;;;29.17;18.75;;;8.80;87.70;;;;;;5117396;27;20043;-72
2022/12/23 00:54:05;;;;;;;28.98;18.63;;;8.80;87.70;;;;;;5100575;27;20062;-71
2022/12/23 00:56:31;;;;;;;26.77;17.17;;;8.80;87.70;;;;;;5117541;27;20035;-71
2022/12/23 00:58:57;;;;;;;27.52;18.55;;;8.80;87.70;;;;;;5116918;27;20053;-71
2022/12/23 01:06:55;;;;;;;29.70;18.33;;;8.80;87.60;;;;;;5131842;27;20043;-68
2022/12/23 01:09:21;;;;;;;27.95;18.27;;;8.80;87.60;;;;;;5117137;27;20371;-70
2022/12/23 01:11:47;;;;;;;24.42;17.13;;;8.80;87.50;;;;;;5116633;27;20506;-69
2022/12/23 01:14:13;;;;;;;28.88;18.42;;;8.80;87.60;;;;;;5099850;27;20035;-69
2022/12/23 01:16:39;;;;;;;27.38;18.25;;;8.80;87.50;;;;;;5101407;27;20045;-69
2022/12/23 01:19:06;;;;;;;25.23;17.40;;;8.80;87.50;;;;;;5116576;27;20038;-69
2022/12/23 01:21:32;;;;;;;24.70;16.27;;;8.80;87.50;;;;;;5115554;27;20610;-68
2022/12/23 01:23:58;;;;;;;26.15;17.48;;;8.80;87.50;;;;;;5116226;27;20050;-69
2022/12/23 01:26:24;;;;;;;23.15;15.88;;;8.80;87.50;;;;;;5099797;27;20039;-68
2022/12/23 01:28:54;;;;;;;25.65;17.15;;;8.80;87.50;;;;;;5099474;27;20031;-69
2022/12/23 01:31:20;;;;;;;25.92;17.17;;;8.80;87.60;;;;;;5099496;27;20034;-69
2022/12/23 01:33:46;;;;;;;23.65;16.17;;;8.80;87.50;;;;;;5116232;27;20059;-69
2022/12/23 01:36:12;;;;;;;25.70;16.38;;;8.80;87.50;;;;;;5117405;27;20042;-69
2022/12/23 01:38:38;;;;;;;22.80;15.95;;;8.80;87.40;;;;;;5099216;27;20487;-68
2022/12/23 01:41:03;;;;;;;31.45;20.02;;;8.80;87.40;;;;;;5116345;27;20042;-69
2022/12/23 01:43:48;;;;;;;24.13;16.55;;;8.80;87.40;;;;;;5115726;27;20402;-68
2022/12/23 01:46:14;;;;;;;23.15;16.00;;;8.80;87.40;;;;;;5115927;27;20082;-69
2022/12/23 01:48:45;;;;;;;26.30;17.52;;;8.80;87.30;;;;;;5114237;27;20114;-68
2022/12/23 01:51:24;;;;;;;24.48;15.68;;;8.80;87.30;;;;;;5115508;27;20042;-69
2022/12/23 01:53:55;;;;;;;24.77;17.30;;;8.80;87.20;;;;;;5115700;27;20043;-70
2022/12/23 01:56:33;;;;;;;25.70;17.40;;;8.80;87.20;;;;;;5116814;27;20414;-69
2022/12/23 01:59:07;;;;;;;24.48;16.13;;;8.80;87.20;;;;;;5116057;27;20046;-69
2022/12/23 02:04:21;;;;;;;26.27;17.25;;;8.80;87.00;;;;;;5101252;27;20047;-68
2022/12/23 02:09:36;;;;;;;27.38;19.52;;;8.80;87.00;;;;;;5132937;27;20513;-68
2022/12/23 02:12:20;;;;;;;30.40;20.42;;;8.80;87.00;;;;;;5113835;27;20115;-68
2022/12/23 02:17:47;;;;;;;23.33;15.65;;;8.80;87.00;;;;;;5091586;27;20047;-68
2022/12/23 02:20:51;;;;;;;24.13;16.33;;;8.80;86.90;;;;;;5115858;27;20042;-68
2022/12/23 02:23:38;;;;;;;23.25;14.70;;;8.80;86.90;;;;;;5115198;27;20047;-68
2022/12/23 02:26:26;;;;;;;22.85;14.95;;;8.80;86.90;;;;;;5115534;27;20114;-68
2022/12/23 02:29:13;;;;;;;26.67;15.50;;;8.80;86.90;;;;;;5117699;27;20061;-68
2022/12/23 02:32:06;;;;;;;23.38;15.55;;;8.80;86.90;;;;;;5126439;27;20035;-68
2022/12/23 02:34:56;;;;;;;26.60;16.13;;;8.80;86.90;;;;;;5097908;27;20083;-68
2022/12/23 02:37:46;;;;;;;25.92;16.38;;;8.80;86.90;;;;;;5113034;27;20045;-68
2022/12/23 02:40:23;;;;;;;26.35;17.05;;;8.80;86.90;;;;;;5115128;27;20035;-69
2022/12/23 02:43:14;;;;;;;26.33;16.50;;;8.80;86.90;;;;;;5115098;27;20039;-68
2022/12/23 02:46:12;;;;;;;25.67;17.25;;;8.80;86.90;;;;;;5097663;27;20486;-68
2022/12/23 02:48:48;;;;;;;29.38;18.05;;;8.80;86.80;;;;;;5116060;27;20111;-68
2022/12/23 02:51:15;;;;;;;31.17;19.20;;;8.80;86.90;;;;;;5096444;27;20071;-69
2022/12/23 02:53:50;;;;;;;31.02;19.42;;;8.80;86.70;;;;;;5114948;27;20419;-68
2022/12/23 02:56:18;;;;;;;28.63;17.90;;;8.80;86.80;;;;;;5097784;27;20043;-68
2022/12/23 02:58:50;;;;;;;34.28;19.70;;;8.80;86.70;;;;;;5114821;27;20095;-69
2022/12/23 03:01:16;;;;;;;41.08;22.40;;;8.80;86.70;;;;;;5114233;27;20080;-69
2022/12/23 03:03:44;;;;;;;41.97;23.35;;;8.80;86.70;;;;;;5112227;27;20035;-69
2022/12/23 03:06:19;;;;;;;32.58;19.77;;;8.80;86.60;;;;;;5114485;27;20059;-69
2022/12/23 03:08:47;;;;;;;30.17;18.17;;;8.80;86.70;;;;;;5097464;27;20031;-69
2022/12/23 03:11:15;;;;;;;35.30;20.52;;;8.70;86.60;;;;;;5114157;28;20123;-69
2022/12/23 03:13:50;;;;;;;45.25;23.02;;;8.80;86.60;;;;;;5114550;27;20039;-69
2022/12/23 03:16:23;;;;;;;42.83;23.77;;;8.70;86.60;;;;;;5114151;27;20126;-69
2022/12/23 03:18:52;;;;;;;37.07;21.13;;;8.80;86.60;;;;;;5114751;27;20046;-69
2022/12/23 03:21:43;;;;;;;43.60;23.85;;;8.70;86.50;;;;;;5114790;27;20280;-69
2022/12/23 03:24:18;;;;;;;39.35;22.02;;;8.70;86.60;;;;;;5114404;27;20051;-69
2022/12/23 03:27:00;;;;;;;41.85;22.75;;;8.70;86.60;;;;;;5114247;27;20073;-68
2022/12/23 03:29:40;;;;;;;38.83;22.08;;;8.70;86.60;;;;;;5114416;28;20386;-69
2022/12/23 03:32:07;;;;;;;40.65;22.20;;;8.70;86.50;;;;;;5114591;28;20048;-68
2022/12/23 03:34:37;;;;;;;44.28;23.52;;;8.70;86.50;;;;;;5114186;28;20059;-69
2022/12/23 03:37:07;;;;;;;36.97;20.88;;;8.70;86.50;;;;;;5114240;28;20049;-68
2022/12/23 03:39:47;;;;;;;37.97;20.27;;;8.70;86.50;;;;;;5111928;28;20068;-69
2022/12/23 03:42:23;;;;;;;42.25;23.10;;;8.70;86.50;;;;;;5112186;28;20494;-69
2022/12/23 03:44:51;;;;;;;40.60;22.92;;;8.70;86.50;;;;;;5116845;27;20043;-69
2022/12/23 03:47:31;;;;;;;40.00;22.33;;;8.70;86.50;;;;;;5116070;27;20051;-69
2022/12/23 03:50:10;;;;;;;36.65;20.38;;;8.70;86.50;;;;;;5102855;27;20039;-68
2022/12/23 03:52:59;;;;;;;42.78;21.45;;;8.70;86.50;;;;;;5118114;27;20043;-69
2022/12/23 03:55:36;;;;;;;37.97;20.75;;;8.70;86.50;;;;;;5117997;27;20045;-68
2022/12/23 03:58:28;;;;;;;40.28;20.80;;;8.70;86.50;;;;;;5118146;27;20038;-68
2022/12/23 04:01:03;;;;;;;32.40;18.60;;;8.70;86.40;;;;;;5118057;27;20027;-68
2022/12/23 04:03:31;;;;;;;;;;;8.70;86.50;;;;;;5118008;27;20070;-69
2022/12/23 04:06:00;;;;;;;33.60;18.23;;;8.70;86.20;;;;;;5118288;27;19994;-68
2022/12/23 04:08:30;;;;;;;42.20;21.20;;;8.70;86.50;;;;;;5118374;27;20035;-68
2022/12/23 04:10:58;;;;;;;37.90;20.75;;;8.70;86.50;;;;;;5129879;27;20038;-69
2022/12/23 04:13:26;;;;;;;34.67;19.42;;;8.70;86.50;;;;;;5117967;27;20084;-69
2022/12/23 04:15:52;;;;;;;33.47;18.73;;;8.70;86.50;;;;;;5118111;27;20071;-68
2022/12/23 04:18:17;;;;;;;35.95;20.05;;;8.70;86.50;;;;;;5117863;27;20092;-68
2022/12/23 04:20:43;;;;;;;32.65;18.25;;;8.70;86.40;;;;;;5102423;27;20038;-68
2022/12/23 04:23:09;;;;;;;36.75;19.58;;;8.70;86.40;;;;;;5117714;27;20536;-68
2022/12/23 04:25:34;;;;;;;41.78;21.15;;;8.70;86.40;;;;;;5100536;27;20035;-68
2022/12/23 04:28:00;;;;;;;37.05;20.13;;;8.70;86.40;;;;;;5117411;27;20420;-68
2022/12/23 04:30:26;;;;;;;38.75;21.42;;;8.70;86.40;;;;;;5117939;27;20059;-69
2022/12/23 04:32:51;;;;;;;31.55;18.17;;;8.70;86.40;;;;;;5083545;27;20058;-68
2022/12/23 04:35:17;;;;;;;34.00;18.73;;;8.70;86.40;;;;;;5100397;27;20458;-68
2022/12/23 04:37:43;;;;;;;35.08;18.67;;;8.70;86.30;;;;;;5100522;27;20041;-70
2022/12/23 04:40:09;;;;;;;35.05;19.92;;;8.70;86.30;;;;;;5118908;27;20104;-71
2022/12/23 04:42:34;;;;;;;38.70;21.33;;;8.70;86.30;;;;;;5117062;27;20035;-73
2022/12/23 04:45:01;;;;;;;38.90;21.98;;;8.70;86.20;;;;;;5117344;27;20035;-72
2022/12/23 04:47:26;;;;;;;35.75;19.38;;;8.60;86.20;;;;;;5117612;27;20355;-71
2022/12/23 04:49:52;;;;;;;32.47;18.20;;;8.70;86.20;;;;;;5102443;27;20050;-72
2022/12/23 04:52:18;;;;;;;34.15;19.25;;;8.70;86.20;;;;;;5083318;27;20446;-72
2022/12/23 04:54:43;;;;;;;33.22;18.98;;;8.70;86.10;;;;;;5117149;27;20031;-73
2022/12/23 04:57:09;;;;;;;34.60;19.35;;;8.70;86.10;;;;;;5116355;27;20092;-72
2022/12/23 04:59:35;;;;;;;32.22;19.15;;;8.70;86.10;;;;;;5117378;27;20125;-72
2022/12/23 05:02:01;;;;;;;34.70;19.13;;;8.70;86.00;;;;;;5117569;27;20099;-72
2022/12/23 05:04:26;;;;;;;33.55;19.23;;;8.70;86.00;;;;;;5117063;27;20427;-72
2022/12/23 05:06:52;;;;;;;35.97;20.63;;;8.70;85.90;;;;;;5116956;27;20101;-69
2022/12/23 05:09:18;;;;;;;32.03;18.38;;;8.70;85.80;;;;;;5098173;27;20043;-68
2022/12/23 05:11:43;;;;;;;33.38;19.00;;;8.70;85.80;;;;;;5117058;27;20039;-68
2022/12/23 05:14:10;;;;;;;32.65;18.20;;;8.70;85.70;;;;;;5116788;27;20055;-69
2022/12/23 05:16:36;;;;;;;32.05;18.38;;;8.70;85.70;;;;;;5116906;27;20441;-68
2022/12/23 05:19:01;;;;;;;32.85;17.52;;;8.70;85.60;;;;;;5118856;27;20096;-69
2022/12/23 05:21:27;;;;;;;31.17;17.52;;;8.70;85.50;;;;;;5099733;27;20085;-68
2022/12/23 05:23:53;;;;;;;34.38;18.77;;;8.70;85.50;;;;;;5116236;27;20039;-69
2022/12/23 05:26:19;;;;;;;35.10;18.50;;;8.70;85.50;;;;;;5116672;27;20039;-68
2022/12/23 05:28:44;;;;;;;34.20;18.08;;;8.70;85.50;;;;;;5116414;27;20039;-68
2022/12/23 05:31:11;;;;;;;36.03;19.70;;;8.70;85.50;;;;;;5115953;27;20539;-68
2022/12/23 05:33:37;;;;;;;45.00;24.52;;;8.70;85.50;;;;;;5113662;27;20473;-67
2022/12/23 05:36:03;;;;;;;46.28;25.25;;;8.60;85.40;;;;;;5115511;27;20067;-68
2022/12/23 05:38:29;;;;;;;37.15;20.13;;;8.60;85.40;;;;;;5082767;27;20082;-69
2022/12/23 05:40:56;;;;;;;33.20;18.30;;;8.60;85.40;;;;;;5116700;27;20070;-69
2022/12/23 05:43:21;;;;;;;31.85;17.90;;;8.60;85.30;;;;;;5116873;27;20506;-69
2022/12/23 05:45:48;;;;;;;31.08;17.00;;;8.60;85.40;;;;;;5117061;27;20069;-69
2022/12/23 05:48:14;;;;;;;31.75;17.05;;;8.60;85.40;;;;;;5116146;27;20080;-69
2022/12/23 05:50:40;;;;;;;32.53;16.90;;;8.60;85.40;;;;;;5116121;27;20035;-69
2022/12/23 05:53:06;;;;;;;33.63;17.85;;;8.60;85.40;;;;;;5116001;27;20095;-69
2022/12/23 05:55:32;;;;;;;30.75;16.70;;;8.60;85.40;;;;;;5116002;27;20039;-69
2022/12/23 05:57:58;;;;;;;30.23;17.85;;;8.60;85.40;;;;;;5098605;27;20035;-69
2022/12/23 06:00:24;;;;;;;31.27;16.98;;;8.60;85.40;;;;;;5115913;27;20160;-69
2022/12/23 06:02:49;;;;;;;31.13;17.08;;;8.60;85.40;;;;;;5115596;27;20112;-69
2022/12/23 06:05:15;;;;;;;28.25;16.08;;;8.60;85.40;;;;;;5098822;27;20435;-69
2022/12/23 06:07:41;;;;;;;27.58;15.77;;;8.60;85.40;;;;;;5115673;27;20043;-69
2022/12/23 06:10:08;;;;;;;31.80;18.45;;;8.60;85.40;;;;;;5115939;27;20073;-69
2022/12/23 06:12:34;;;;;;;28.58;16.05;;;8.60;85.40;;;;;;5115973;27;20180;-69
2022/12/23 06:15:00;;;;;;;25.40;14.52;;;8.60;85.30;;;;;;5098357;27;20538;-69
2022/12/23 06:17:25;;;;;;;24.75;15.30;;;8.60;85.30;;;;;;5115824;27;20082;-69
2022/12/23 06:19:51;;;;;;;25.35;14.45;;;8.50;85.30;;;;;;5098340;27;20133;-69
2022/12/23 06:22:19;;;;;;;27.65;16.08;;;8.50;85.30;;;;;;5115409;27;20057;-69
2022/12/23 06:24:45;;;;;;;25.20;15.13;;;8.50;85.20;;;;;;5115649;27;20039;-69
2022/12/23 06:27:11;;;;;;;25.45;15.13;;;8.50;85.20;;;;;;5115722;27;20099;-69
2022/12/23 06:29:36;;;;;;;27.48;15.63;;;8.50;85.20;;;;;;5115139;27;20034;-69
2022/12/23 06:32:02;;;;;;;27.05;15.70;;;8.50;85.20;;;;;;5115124;27;20120;-69
2022/12/23 06:34:28;;;;;;;26.67;15.05;;;8.50;85.20;;;;;;5111687;28;20036;-69
2022/12/23 06:36:54;;;;;;;24.48;14.10;;;8.50;85.20;;;;;;5111977;28;20043;-69
2022/12/23 06:39:19;;;;;;;26.25;15.48;;;8.50;85.20;;;;;;5111889;28;20035;-69
2022/12/23 06:41:45;;;;;;;25.25;14.95;;;8.50;85.10;;;;;;5094626;28;20170;-69
2022/12/23 06:44:11;;;;;;;24.38;14.43;;;8.50;85.20;;;;;;5100253;28;20043;-69
2022/12/23 06:46:36;;;;;;;27.58;16.00;;;8.50;85.20;;;;;;5111575;28;20040;-69
2022/12/23 06:49:02;;;;;;;27.23;14.75;;;8.50;85.10;;;;;;5111430;28;20052;-69
2022/12/23 06:51:28;;;;;;;25.38;14.80;;;8.60;85.20;;;;;;5094860;28;20039;-72
2022/12/23 06:53:54;;;;;;;30.23;15.77;;;8.50;85.10;;;;;;5111354;28;20410;-69
2022/12/23 06:56:19;;;;;;;25.23;15.05;;;8.50;85.10;;;;;;5111317;28;20109;-69
2022/12/23 06:58:45;;;;;;;25.00;14.50;;;8.50;85.10;;;;;;5111743;28;20039;-69
2022/12/23 07:01:11;;;;;;;26.45;14.65;;;8.50;85.10;;;;;;5111224;28;20096;-69
2022/12/23 07:03:36;;;;;;;25.63;14.32;;;8.50;85.10;;;;;;5111340;28;20036;-73
2022/12/23 07:06:02;;;;;;;24.38;14.82;;;8.50;85.10;;;;;;5077434;28;20058;-73
2022/12/23 07:08:28;;;;;;;25.02;14.43;;;8.50;85.00;;;;;;5111487;28;20490;-73
2022/12/23 07:11:02;;;;;;;25.98;14.70;;;8.50;85.00;;;;;;5111537;28;20033;-72
2022/12/23 07:13:28;;;;;;;22.95;13.65;;;8.50;85.10;;;;;;5111443;28;20582;-72
2022/12/23 07:15:54;;;;;;;23.65;14.25;;;8.50;85.00;;;;;;5094458;28;20036;-72
2022/12/23 07:18:24;;;;;;;24.10;14.18;;;8.50;85.00;;;;;;5110594;28;20070;-72
2022/12/23 07:20:50;;;;;;;23.27;14.00;;;8.50;85.00;;;;;;5111154;28;20039;-73
2022/12/23 07:23:16;;;;;;;23.52;14.00;;;8.50;85.00;;;;;;5076456;28;21333;-72
2022/12/23 07:25:42;;;;;;;23.08;13.63;;;8.50;85.00;;;;;;5093692;28;20040;-72
2022/12/23 07:28:07;;;;;;;21.67;12.45;;;8.50;85.00;;;;;;5094437;28;20118;-72
2022/12/23 07:30:34;;;;;;;25.33;14.10;;;8.50;85.00;;;;;;5093874;28;20039;-72
2022/12/23 07:32:59;;;;;;;24.88;14.57;;;8.50;85.00;;;;;;5110994;28;20130;-72
2022/12/23 07:35:25;;;;;;;24.20;14.13;;;8.50;85.00;;;;;;5111051;28;20131;-72
2022/12/23 07:37:53;;;;;;;22.58;13.65;;;8.50;85.00;;;;;;5111252;28;20547;-72
2022/12/23 07:40:19;;;;;;;24.02;14.25;;;8.50;85.00;;;;;;5110390;28;20046;-72
2022/12/23 07:42:57;;;;;;;23.73;13.57;;;8.50;85.00;;;;;;5110718;28;20036;-72
2022/12/23 07:45:27;;;;;;;22.90;13.50;;;8.50;85.00;;;;;;5093699;28;20548;-72
2022/12/23 07:47:57;;;;;;;24.05;13.57;;;8.50;85.00;;;;;;5110766;28;20143;-72
2022/12/23 07:50:24;;;;;;;21.42;12.27;;;8.50;85.00;;;;;;5108807;28;20040;-72
2022/12/23 07:52:51;;;;;;;24.83;14.30;;;8.40;84.90;;;;;;5110807;28;20036;-73
2022/12/23 07:55:17;;;;;;;23.70;14.10;;;8.50;84.90;;;;;;5093450;28;20039;-73
2022/12/23 07:57:42;;;;;;;22.88;13.88;;;8.50;84.90;;;;;;5110713;28;20035;-71
2022/12/23 08:00:11;;;;;;;20.85;12.85;;;8.50;84.90;;;;;;5110709;28;20487;-71
2022/12/23 08:02:37;;;;;;;22.35;13.48;;;8.50;85.00;;;;;;5110659;28;20035;-72
2022/12/23 08:05:03;;;;;;;22.23;12.77;;;8.40;84.90;;;;;;5093150;28;20044;-71
2022/12/23 08:07:28;;;;;;;20.27;12.18;;;8.50;85.00;;;;;;5110921;28;20031;-72
2022/12/23 08:09:54;;;;;;;22.50;13.65;;;8.50;85.00;;;;;;5093417;28;20494;-72
2022/12/23 08:12:20;;;;;;;22.92;13.63;;;8.40;84.90;;;;;;5110666;28;20035;-72
2022/12/23 08:14:47;;;;;;;28.60;14.90;;;8.50;84.90;;;;;;5110541;28;20077;-72
2022/12/23 08:17:13;;;;;;;31.25;17.27;;;8.50;84.90;;;;;;5110571;28;20512;-71
2022/12/23 08:19:39;;;;;;;34.80;14.75;;;8.40;84.80;;;;;;5107915;28;20407;-72
2022/12/23 08:22:04;;;;;;;29.83;17.02;;;8.40;84.90;;;;;;5093622;28;20039;-72
2022/12/23 08:24:30;;;;;;;29.23;16.85;;;8.40;84.80;;;;;;5110172;28;20223;-72
2022/12/23 08:26:57;;;;;;;26.10;14.55;;;8.40;84.80;;;;;;5110481;28;20097;-72
2022/12/23 08:29:23;;;;;;;30.55;16.15;;;8.50;84.90;;;;;;5110661;28;20474;-72
2022/12/23 08:31:49;;;;;;;26.60;15.70;;;8.40;84.90;;;;;;5114309;28;20475;-71
2022/12/23 08:34:15;;;;;;;29.52;16.17;;;8.40;84.90;;;;;;5113812;28;20118;-72
2022/12/23 08:36:41;;;;;;;27.58;15.07;;;8.40;85.00;;;;;;5097141;28;20036;-71
2022/12/23 08:39:10;;;;;;;31.02;17.58;;;8.40;85.10;;;;;;5114377;28;20384;-71
2022/12/23 08:41:40;;;;;;;25.40;15.10;;;8.40;85.50;;;;;;5113962;28;20156;-72
2022/12/23 08:44:06;;;;;;;25.75;14.57;;;8.40;85.20;;;;;;5114461;28;20115;-71
2022/12/23 08:46:32;;;;;;;26.27;14.30;;;8.40;85.20;;;;;;5113757;28;20047;-72
2022/12/23 08:48:58;;;;;;;24.85;13.77;;;8.40;85.20;;;;;;5111166;28;20539;-72
2022/12/23 08:51:25;;;;;;;23.80;13.70;;;8.40;85.30;;;;;;5113751;28;20043;-71
2022/12/23 08:53:53;;;;;;;25.92;15.98;;;8.40;85.30;;;;;;5114019;28;20122;-71
2022/12/23 08:56:20;;;;;;;26.63;15.75;;;8.40;85.30;;;;;;5097087;28;20047;-72
2022/12/23 08:58:48;;;;;;;26.40;15.75;;;8.40;85.30;;;;;;5111449;28;20494;-72
2022/12/23 09:01:16;;;;;;;27.25;14.93;;;8.40;85.30;;;;;;5113751;28;20506;-71
2022/12/23 09:03:43;;;;;;;26.10;15.75;;;8.40;85.30;;;;;;5113574;28;20051;-71
2022/12/23 09:06:15;;;;;;;23.65;13.82;;;8.40;85.30;;;;;;5113104;28;20073;-71
2022/12/23 09:08:41;;;;;;;23.58;13.40;;;8.40;85.40;;;;;;5114039;28;20044;-71
2022/12/23 09:11:12;;;;;;;23.92;13.52;;;8.40;85.30;;;;;;5113791;28;20042;-71
2022/12/23 09:13:38;;;;;;;26.92;14.63;;;8.40;85.40;;;;;;5096774;28;20576;-69
2022/12/23 09:16:06;;;;;;;23.92;13.65;;;8.40;85.40;;;;;;5114726;28;20503;-71
2022/12/23 09:18:32;;;;;;;24.67;13.73;;;8.40;85.50;;;;;;5114900;28;20047;-69
2022/12/23 09:21:04;;;;;;;21.83;13.00;;;8.40;85.90;;;;;;5097525;28;20043;-69
2022/12/23 09:23:30;;;;;;;27.90;15.02;;;8.40;85.60;;;;;;5113809;28;20044;-67
2022/12/23 09:25:56;;;;;;;26.20;13.45;;;8.30;85.50;;;;;;5114332;28;20032;-67
2022/12/23 09:28:22;;;;;;;24.48;13.80;;;8.30;85.60;;;;;;5114465;28;20042;-67
2022/12/23 09:30:48;;;;;;;21.92;12.48;;;8.30;85.70;;;;;;5113655;28;20035;-68
2022/12/23 09:33:14;;;;;;;23.33;12.18;;;8.40;85.80;;;;;;5096997;28;20058;-67
2022/12/23 09:35:40;;;;;;;21.98;13.60;;;8.40;85.80;;;;;;5114413;28;20035;-67
2022/12/23 09:38:06;;;;;;;35.22;14.50;;;8.30;85.80;;;;;;5097033;28;20476;-68
2022/12/23 09:40:35;;;;;;;26.05;13.35;;;8.30;85.80;;;;;;5096849;28;20047;-67
2022/12/23 09:43:00;;;;;;;30.00;13.05;;;8.30;85.90;;;;;;5108644;28;20035;-68
2022/12/23 09:45:55;;;;;;;24.75;12.18;;;8.30;86.00;;;;;;5111581;27;20039;-67
2022/12/23 09:48:27;;;;;;;22.38;12.35;;;8.30;86.00;;;;;;5104862;27;20403;-68
2022/12/23 09:50:53;;;;;;;24.52;12.45;;;8.30;86.10;;;;;;5093722;28;20513;-68
2022/12/23 09:53:39;;;;;;;24.80;12.52;;;8.30;86.20;;;;;;5122855;27;20031;-68
2022/12/23 09:56:13;;;;;;;22.85;11.32;;;8.30;86.30;;;;;;5117221;27;20038;-68
2022/12/23 09:58:55;;;;;;;22.13;11.30;;;8.30;86.30;;;;;;5108792;27;20104;-68
2022/12/23 10:01:30;;;;;;;20.13;11.02;;;8.30;86.40;;;;;;5115699;27;20096;-68
2022/12/23 10:04:28;;;;;;;23.58;11.70;;;8.30;86.40;;;;;;5118659;27;20371;-68
2022/12/23 10:07:03;;;;;;;24.08;10.65;;;8.30;86.60;;;;;;5101277;27;20041;-68
2022/12/23 10:09:37;;;;;;;18.27;9.95;;;8.30;86.70;;;;;;5105082;27;20038;-68
2022/12/23 10:12:25;;;;;;;18.30;8.80;;;8.30;86.70;;;;;;5115451;27;20031;-67
2022/12/23 10:18:05;;;;;;;15.57;7.95;;;8.20;86.60;;;;;;5106820;28;20116;-67
2022/12/23 10:20:58;;;;;;;15.75;7.45;;;8.30;86.70;;;;;;5109369;28;20039;-68
2022/12/23 10:23:33;;;;;;;15.38;7.28;;;8.20;86.70;;;;;;5108953;28;20105;-68
2022/12/23 10:25:59;;;;;;;;;;;8.30;86.90;;;;;;5096561;28;20047;-68
2022/12/23 10:28:25;;;;;;;20.27;8.32;;;8.20;86.60;;;;;;5113241;28;19985;-68
2022/12/23 10:31:04;;;;;;;17.70;8.18;;;8.20;86.80;;;;;;5079235;28;20433;-68
2022/12/23 10:34:05;;;;;;;18.95;8.80;;;8.30;87.00;;;;;;5112401;28;20108;-68
2022/12/23 10:36:39;;;;;;;17.17;8.60;;;8.20;86.90;;;;;;5014948;28;20046;-68
2022/12/23 10:39:36;;;;;;;18.02;8.65;;;8.20;87.00;;;;;;5097502;28;20051;-68
2022/12/23 10:42:20;;;;;;;17.50;9.18;;;8.20;87.10;;;;;;5112778;28;20474;-68
2022/12/23 10:45:15;;;;;;;17.70;9.25;;;8.30;87.20;;;;;;5112739;28;20127;-68
2022/12/23 10:47:59;;;;;;;19.70;9.70;;;8.30;87.20;;;;;;5103602;28;20047;-68
2022/12/23 10:50:51;;;;;;;17.73;8.77;;;8.30;87.30;;;;;;5092354;28;20078;-68
2022/12/23 10:53:36;;;;;;;19.02;9.43;;;8.30;87.30;;;;;;5091442;28;20036;-69
2022/12/23 10:56:03;;;;;;;17.30;9.23;;;8.30;87.30;;;;;;5111779;28;20118;-68
2022/12/23 10:58:29;;;;;;;18.38;9.60;;;8.30;87.20;;;;;;5112550;28;20046;-68
2022/12/23 11:00:58;;;;;;;16.42;9.52;;;8.30;87.20;;;;;;5112610;28;20122;-68
2022/12/23 11:03:24;;;;;;;15.88;9.55;;;8.30;87.30;;;;;;5112158;28;20430;-69
2022/12/23 11:05:51;;;;;;;16.45;10.07;;;8.30;87.20;;;;;;5111993;28;20039;-68
2022/12/23 11:08:20;;;;;;;19.15;10.32;;;8.30;87.30;;;;;;5095238;28;20039;-71
2022/12/23 11:10:46;;;;;;;17.50;9.10;;;8.40;87.30;;;;;;5112335;28;20035;-71
2022/12/23 11:13:33;;;;;;;16.98;10.02;;;8.30;87.30;;;;;;5112459;28;20121;-71
2022/12/23 11:16:22;;;;;;;15.68;10.32;;;8.40;87.50;;;;;;5111752;28;20135;-71
2022/12/23 11:18:59;;;;;;;16.27;9.10;;;8.40;87.60;;;;;;5111194;28;20083;-72
2022/12/23 11:21:26;;;;;;;17.90;10.40;;;8.40;87.50;;;;;;5112104;28;20085;-71
2022/12/23 11:24:05;;;;;;;20.13;10.30;;;8.40;87.40;;;;;;5111970;28;20126;-71
2022/12/23 11:26:31;;;;;;;18.38;10.52;;;8.40;87.40;;;;;;5112303;28;20074;-71
2022/12/23 11:29:05;;;;;;;21.10;11.02;;;8.40;87.40;;;;;;5112267;28;20448;-72
2022/12/23 11:31:34;;;;;;;17.10;10.57;;;8.40;87.40;;;;;;5112040;28;20047;-71
2022/12/23 11:34:18;;;;;;;17.25;10.23;;;8.40;87.40;;;;;;5111943;28;20085;-72
2022/12/23 11:36:54;;;;;;;18.80;10.48;;;8.50;87.50;;;;;;5108808;28;20572;-68
2022/12/23 11:39:29;;;;;;;19.30;9.68;;;8.40;87.40;;;;;;5093072;28;20044;-68
2022/12/23 11:42:16;;;;;;;21.20;10.98;;;8.40;87.40;;;;;;5111833;28;20558;-68
2022/12/23 11:44:44;;;;;;;19.00;10.60;;;8.40;87.40;;;;;;5111951;28;20040;-68
2022/12/23 11:47:33;;;;;;;19.67;10.65;;;8.40;87.40;;;;;;5094948;28;20035;-68
2022/12/23 11:50:01;;;;;;;18.77;10.85;;;8.40;87.40;;;;;;5112039;28;20395;-68
2022/12/23 11:52:32;;;;;;;16.35;9.80;;;8.40;87.40;;;;;;5111495;28;20114;-71
2022/12/23 11:55:00;;;;;;;19.63;10.48;;;8.40;87.40;;;;;;5092807;28;20039;-72
2022/12/23 11:57:31;;;;;;;19.45;10.70;;;8.40;87.40;;;;;;5106375;28;20039;-72
2022/12/23 12:00:01;;;;;;;21.20;11.70;;;8.40;87.40;;;;;;5106160;28;20112;-72
2022/12/23 12:02:34;;;;;;;28.70;12.02;;;8.40;87.40;;;;;;5111142;28;20513;-72
2022/12/23 12:05:05;;;;;;;19.67;10.85;;;8.40;87.50;;;;;;5112203;28;20105;-72
2022/12/23 12:07:31;;;;;;;22.52;11.63;;;8.40;87.50;;;;;;5115747;28;20500;-72
2022/12/23 12:09:59;;;;;;;19.98;11.68;;;8.40;87.50;;;;;;5098683;28;20089;-72
2022/12/23 12:12:27;;;;;;;21.10;11.05;;;8.40;87.50;;;;;;5115848;28;20364;-72
2022/12/23 12:14:56;;;;;;;23.73;12.00;;;8.40;87.60;;;;;;5115638;28;20044;-71
2022/12/23 12:17:46;;;;;;;21.38;10.68;;;8.40;87.60;;;;;;5115704;28;20054;-68
2022/12/23 12:20:16;;;;;;;24.30;11.68;;;8.40;87.70;;;;;;5115885;28;20456;-68
2022/12/23 12:22:50;;;;;;;21.73;11.18;;;8.40;87.70;;;;;;5115636;28;20043;-68
2022/12/23 12:25:21;;;;;;;25.60;12.40;;;8.40;87.70;;;;;;5115523;28;20035;-68
2022/12/23 12:27:55;;;;;;;22.80;11.55;;;8.40;87.70;;;;;;5115754;28;20179;-72
2022/12/23 12:30:21;;;;;;;21.02;10.57;;;8.50;87.80;;;;;;5115036;28;20046;-72
2022/12/23 12:32:57;;;;;;;25.77;11.95;;;8.40;87.70;;;;;;5115314;27;20051;-72
2022/12/23 12:35:45;;;;;;;25.27;12.65;;;8.40;87.90;;;;;;5101969;27;20082;-72
2022/12/23 12:38:31;;;;;;;25.38;12.93;;;8.40;87.90;;;;;;5118767;27;20454;-69
2022/12/23 12:41:00;;;;;;;23.60;12.13;;;8.40;87.90;;;;;;5117953;27;20474;-71
2022/12/23 12:43:26;;;;;;;25.95;13.02;;;8.40;87.90;;;;;;5118344;27;20046;-69
2022/12/23 12:46:05;;;;;;;26.55;12.60;;;8.40;87.90;;;;;;5118500;27;20510;-70
2022/12/23 12:48:54;;;;;;;26.88;12.90;;;8.40;88.10;;;;;;5118476;27;20383;-69
2022/12/23 12:51:42;;;;;;;27.42;12.55;;;8.40;88.10;;;;;;5118174;27;20035;-69
2022/12/23 12:54:34;;;;;;;25.63;11.95;;;8.40;88.10;;;;;;5118241;27;20121;-68
2022/12/23 12:57:01;;;;;;;27.23;12.70;;;8.40;88.20;;;;;;5099222;27;20200;-69
2022/12/23 12:59:35;;;;;;;26.83;12.88;;;8.40;88.10;;;;;;5117931;27;20160;-69
2022/12/23 13:02:24;;;;;;;24.33;12.38;;;8.40;88.20;;;;;;5117946;27;20053;-68
2022/12/23 13:05:19;;;;;;;26.42;12.70;;;8.40;88.30;;;;;;5096922;27;20443;-68
2022/12/23 13:07:55;;;;;;;26.75;12.20;;;8.40;88.30;;;;;;5117359;27;20363;-69
2022/12/23 13:10:30;;;;;;;25.65;11.80;;;8.40;88.20;;;;;;5121602;27;20035;-69
2022/12/23 13:13:05;;;;;;;23.52;12.18;;;8.40;88.40;;;;;;5127025;27;20036;-69
2022/12/23 13:15:37;;;;;;;25.30;12.32;;;8.40;88.40;;;;;;5124703;27;20078;-71
2022/12/23 13:18:27;;;;;;;22.77;11.65;;;8.40;88.40;;;;;;5113527;27;20050;-72
2022/12/23 13:21:30;;;;;;;21.95;11.18;;;8.40;88.50;;;;;;5100089;27;20122;-71
2022/12/23 13:24:05;;;;;;;24.23;11.13;;;8.40;88.60;;;;;;5110787;27;20050;-69